Time,TemperatureF,DewpointF,PressureIn,WindDirection,WindDirectionDegrees,WindSpeedMPH,WindSpeedGustMPH,Humidity,HourlyPrecipIn,Conditions,Clouds,dailyrainin,SolarRadiationWatts/m^2,SoftwareType,DateUTC
2013-04-21 00:01:00,46.9,42.3,30.24,East,82,6.9,6.9,84,0.00,,---,0.00,0.00,VWS V14.01,2013-04-21 07:01:00,
2013-04-21 00:06:00,46.8,41.8,30.24,ENE,70,5.4,6.9,83,0.00,,---,0.00,0.00,VWS V14.01,2013-04-21 07:06:00,
2013-04-21 00:11:00,46.9,41.9,30.24,East,85,4.9,4.9,83,0.00,,---,0.00,0.00,VWS V14.01,2013-04-21 07:11:00,
2013-04-21 00:16:00,46.8,41.5,30.24,ENE,72,5.8,5.8,82,0.00,,---,0.00,1.91,VWS V14.01,2013-04-21 07:16:00,
2013-04-21 00:21:00,46.8,41.8,30.24,East,81,3.8,5.6,83,0.00,,---,0.00,0.00,VWS V14.01,2013-04-21 07:21:00,
2013-04-21 00:26:00,46.8,41.7,30.24,NE,54,1.6,1.6,82,0.00,,---,0.00,0.00,VWS V14.01,2013-04-21 07:26:00,
2013-04-21 00:31:00,46.8,41.7,30.24,ENE,60,5.8,6.5,82,0.00,,---,0.00,0.00,VWS V14.01,2013-04-21 07:31:00,
2013-04-21 00:36:00,46.8,41.5,30.24,East,99,7.4,7.4,82,0.00,,---,0.00,0.23,VWS V14.01,2013-04-21 07:36:00,
2013-04-21 00:41:00,46.8,41.5,30.24,ENE,72,6.0,6.3,82,0.00,,---,0.00,0.00,VWS V14.01,2013-04-21 07:41:00,
2013-04-21 00:46:00,46.6,41.0,30.24,ENE,57,5.6,5.6,81,0.00,,---,0.00,2.98,VWS V14.01,2013-04-21 07:46:00,
2013-04-21 00:51:00,46.6,40.8,30.24,East,90,6.7,6.7,80,0.00,,---,0.00,0.00,VWS V14.01,2013-04-21 07:51:00,
2013-04-21 00:56:00,46.6,40.9,30.24,East,89,2.0,5.4,80,0.00,,---,0.00,0.61,VWS V14.01,2013-04-21 07:56:00,
2013-04-21 01:01:00,46.6,41.0,30.24,East,80,2.9,2.9,81,0.00,,---,0.00,1.91,VWS V14.01,2013-04-21 08:01:00,
2013-04-21 01:06:00,46.6,41.1,30.24,NNE,33,2.5,2.5,81,0.00,,---,0.00,0.84,VWS V14.01,2013-04-21 08:06:00,
2013-04-21 01:11:00,46.6,41.0,30.24,NE,41,6.7,6.7,81,0.00,,---,0.00,0.00,VWS V14.01,2013-04-21 08:11:00,
2013-04-21 01:16:00,46.4,40.8,30.24,ENE,68,2.7,4.0,81,0.00,,---,0.00,1.68,VWS V14.01,2013-04-21 08:16:00,
2013-04-21 01:21:00,46.2,40.2,30.24,East,86,4.9,5.1,79,0.00,,---,0.00,0.00,VWS V14.01,2013-04-21 08:21:00,
2013-04-21 01:26:00,46.2,40.4,30.24,East,83,4.5,4.7,80,0.00,,---,0.00,0.00,VWS V14.01,2013-04-21 08:26:00,
2013-04-21 01:31:00,46.0,40.5,30.24,NNE,28,1.3,4.0,81,0.00,,---,0.00,0.61,VWS V14.01,2013-04-21 08:31:00,
2013-04-21 01:36:00,46.0,40.5,30.24,ENE,66,8.3,8.3,81,0.00,,---,0.00,5.57,VWS V14.01,2013-04-21 08:36:00,
2013-04-21 01:41:00,46.0,40.1,30.24,ENE,65,4.0,6.5,80,0.00,,---,0.00,0.00,VWS V14.01,2013-04-21 08:41:00,
2013-04-21 01:46:00,45.9,40.3,30.24,East,88,2.9,4.5,81,0.00,,---,0.00,3.97,VWS V14.01,2013-04-21 08:46:00,
2013-04-21 01:51:00,45.9,40.2,30.23,East,80,7.6,7.6,80,0.00,,---,0.00,0.08,VWS V14.01,2013-04-21 08:51:00,
2013-04-21 01:56:00,45.9,40.3,30.23,East,100,4.3,4.9,81,0.00,,---,0.00,0.92,VWS V14.01,2013-04-21 08:56:00,
2013-04-21 02:01:00,46.0,40.5,30.23,East,96,6.0,6.3,81,0.00,,---,0.00,0.00,VWS V14.01,2013-04-21 09:01:00,
2013-04-21 02:06:00,46.0,40.3,30.23,ESE,111,6.0,6.9,80,0.00,,---,0.00,0.00,VWS V14.01,2013-04-21 09:06:00,
2013-04-21 02:11:00,45.9,39.9,30.23,ENE,76,7.8,9.6,80,0.00,,---,0.00,0.00,VWS V14.01,2013-04-21 09:11:00,
2013-04-21 02:15:00,45.9,40.1,30.23,East,100,4.3,6.5,80,0.00,,---,0.00,2.44,VWS V14.01,2013-04-21 09:15:00,
2013-04-21 02:20:00,45.9,40.1,30.23,East,93,6.5,6.5,80,0.00,,---,0.00,0.00,VWS V14.01,2013-04-21 09:20:00,
2013-04-21 02:25:00,46.0,40.3,30.23,East,93,2.9,4.7,80,0.00,,---,0.00,1.91,VWS V14.01,2013-04-21 09:25:00,
2013-04-21 02:30:00,45.9,40.1,30.23,East,99,6.7,6.7,80,0.00,,---,0.00,0.00,VWS V14.01,2013-04-21 09:30:00,
2013-04-21 02:35:00,45.9,40.1,30.23,East,89,4.3,6.5,80,0.00,,---,0.00,0.00,VWS V14.01,2013-04-21 09:35:00,
2013-04-21 02:40:00,45.9,40.0,30.23,East,99,3.8,5.8,80,0.00,,---,0.00,0.00,VWS V14.01,2013-04-21 09:40:00,
2013-04-21 02:45:00,46.0,40.4,30.22,East,82,3.1,3.8,80,0.00,,---,0.00,3.36,VWS V14.01,2013-04-21 09:45:00,
2013-04-21 02:50:00,46.0,40.4,30.22,East,82,4.3,4.3,81,0.00,,---,0.00,3.59,VWS V14.01,2013-04-21 09:50:00,
2013-04-21 02:55:00,45.9,39.9,30.22,East,93,4.7,4.7,80,0.00,,---,0.00,0.92,VWS V14.01,2013-04-21 09:55:00,
2013-04-21 03:00:00,45.9,39.9,30.22,East,86,6.9,9.4,79,0.00,,---,0.00,2.14,VWS V14.01,2013-04-21 10:00:00,
2013-04-21 03:05:00,45.9,39.9,30.22,ESE,104,7.2,7.6,80,0.00,,---,0.00,3.36,VWS V14.01,2013-04-21 10:05:00,
2013-04-21 03:10:00,45.9,39.9,30.22,NE,55,2.2,2.2,80,0.00,,---,0.00,0.00,VWS V14.01,2013-04-21 10:10:00,
2013-04-21 03:15:00,45.9,39.9,30.22,ESE,107,4.3,4.9,80,0.00,,---,0.00,0.00,VWS V14.01,2013-04-21 10:15:00,
2013-04-21 03:20:00,45.9,39.7,30.22,East,86,8.5,8.5,79,0.00,,---,0.00,1.98,VWS V14.01,2013-04-21 10:20:00,
2013-04-21 03:25:00,45.9,39.9,30.22,ENE,73,5.6,5.6,79,0.00,,---,0.00,0.84,VWS V14.01,2013-04-21 10:25:00,
2013-04-21 03:30:00,45.7,39.4,30.22,East,82,8.1,10.5,79,0.00,,---,0.00,0.76,VWS V14.01,2013-04-21 10:30:00,
2013-04-21 03:35:00,45.7,39.5,30.22,ENE,78,7.8,7.8,79,0.00,,---,0.00,0.00,VWS V14.01,2013-04-21 10:35:00,
2013-04-21 03:40:00,45.7,39.5,30.21,ESE,113,4.5,4.5,79,0.00,,---,0.00,0.00,VWS V14.01,2013-04-21 10:40:00,
2013-04-21 03:45:00,45.7,39.7,30.21,ENE,72,6.0,6.9,79,0.00,,---,0.00,0.00,VWS V14.01,2013-04-21 10:45:00,
2013-04-21 03:50:00,45.9,39.9,30.21,East,93,7.8,7.8,80,0.00,,---,0.00,0.00,VWS V14.01,2013-04-21 10:50:00,
2013-04-21 03:55:00,45.9,40.0,30.22,East,94,4.9,4.9,80,0.00,,---,0.00,0.00,VWS V14.01,2013-04-21 10:55:00,
2013-04-21 04:00:00,45.7,39.5,30.21,East,79,8.5,8.5,79,0.00,,---,0.00,0.00,VWS V14.01,2013-04-21 11:00:00,
2013-04-21 04:05:00,45.7,39.5,30.21,ENE,63,11.0,11.0,79,0.00,,---,0.00,0.00,VWS V14.01,2013-04-21 11:05:00,
2013-04-21 04:10:00,45.5,39.2,30.21,East,88,5.1,10.7,79,0.00,,---,0.00,0.00,VWS V14.01,2013-04-21 11:10:00,
2013-04-21 04:15:00,45.5,39.3,30.21,ENE,77,8.3,9.8,79,0.00,,---,0.00,0.00,VWS V14.01,2013-04-21 11:15:00,
2013-04-21 04:20:00,45.5,39.3,30.21,ENE,57,3.8,5.4,79,0.00,,---,0.00,0.00,VWS V14.01,2013-04-21 11:20:00,
2013-04-21 04:25:00,45.5,39.0,30.21,ENE,71,5.4,6.0,78,0.00,,---,0.00,1.53,VWS V14.01,2013-04-21 11:25:00,
2013-04-21 04:30:00,45.5,39.1,30.21,East,83,7.2,7.2,78,0.00,,---,0.00,0.92,VWS V14.01,2013-04-21 11:30:00,
2013-04-21 04:35:00,45.3,39.0,30.21,East,88,5.8,6.0,78,0.00,,---,0.00,0.00,VWS V14.01,2013-04-21 11:35:00,
2013-04-21 04:40:00,45.3,38.9,30.21,East,86,8.3,8.3,78,0.00,,---,0.00,0.00,VWS V14.01,2013-04-21 11:40:00,
2013-04-21 04:45:00,45.3,38.9,30.21,ENE,65,12.3,12.3,78,0.00,,---,0.00,2.52,VWS V14.01,2013-04-21 11:45:00,
2013-04-21 04:50:00,45.3,38.8,30.22,East,84,8.5,8.5,78,0.00,,---,0.00,0.00,VWS V14.01,2013-04-21 11:50:00,
2013-04-21 04:55:00,45.3,38.9,30.22,East,95,10.7,10.7,78,0.00,,---,0.00,0.00,VWS V14.01,2013-04-21 11:55:00,
2013-04-21 05:00:00,45.1,38.7,30.21,ENE,62,4.0,6.9,78,0.00,,---,0.00,0.00,VWS V14.01,2013-04-21 12:00:00,
2013-04-21 05:05:00,45.1,38.6,30.21,ENE,60,9.2,9.2,78,0.00,,---,0.00,2.06,VWS V14.01,2013-04-21 12:05:00,
2013-04-21 05:10:00,45.1,38.7,30.22,ENE,75,7.8,7.8,78,0.00,,---,0.00,0.00,VWS V14.01,2013-04-21 12:10:00,
2013-04-21 05:15:00,45.3,38.9,30.22,ENE,78,6.9,6.9,78,0.00,,---,0.00,0.00,VWS V14.01,2013-04-21 12:15:00,
2013-04-21 05:20:00,45.1,38.5,30.21,ENE,63,5.4,9.2,78,0.00,,---,0.00,4.04,VWS V14.01,2013-04-21 12:20:00,
2013-04-21 05:25:00,45.1,38.6,30.22,East,90,5.1,5.1,78,0.00,,---,0.00,0.00,VWS V14.01,2013-04-21 12:25:00,
2013-04-21 05:30:00,45.1,38.6,30.22,ENE,72,10.7,10.7,78,0.00,,---,0.00,3.59,VWS V14.01,2013-04-21 12:30:00,
2013-04-21 05:35:00,45.1,38.7,30.21,East,84,6.5,6.5,78,0.00,,---,0.00,0.00,VWS V14.01,2013-04-21 12:35:00,
2013-04-21 05:40:00,45.1,38.8,30.21,ENE,70,5.8,5.8,78,0.00,,---,0.00,4.35,VWS V14.01,2013-04-21 12:40:00,
2013-04-21 05:45:00,45.1,38.8,30.21,NE,50,6.3,6.3,78,0.00,,---,0.00,0.46,VWS V14.01,2013-04-21 12:45:00,
2013-04-21 05:50:00,45.1,38.8,30.21,ENE,77,9.8,9.8,78,0.00,,---,0.00,0.00,VWS V14.01,2013-04-21 12:50:00,
2013-04-21 05:55:00,45.0,38.5,30.21,ENE,78,8.1,8.1,78,0.00,,---,0.00,0.00,VWS V14.01,2013-04-21 12:55:00,
2013-04-21 06:00:00,45.1,38.7,30.21,ENE,68,6.3,6.3,78,0.00,,---,0.00,0.69,VWS V14.01,2013-04-21 13:00:00,
2013-04-21 06:05:00,45.1,38.8,30.21,East,84,3.4,3.4,78,0.00,,---,0.00,2.67,VWS V14.01,2013-04-21 13:05:00,
2013-04-21 06:10:00,45.1,38.8,30.21,East,80,6.7,6.7,78,0.00,,---,0.00,1.07,VWS V14.01,2013-04-21 13:10:00,
2013-04-21 06:15:00,45.0,38.6,30.21,ENE,77,5.4,5.4,78,0.00,,---,0.00,1.68,VWS V14.01,2013-04-21 13:15:00,
2013-04-21 06:20:00,45.0,38.6,30.21,East,90,6.7,6.7,78,0.00,,---,0.00,1.07,VWS V14.01,2013-04-21 13:20:00,
2013-04-21 06:25:00,45.0,38.5,30.21,ENE,67,8.3,9.6,78,0.00,,---,0.00,5.72,VWS V14.01,2013-04-21 13:25:00,
2013-04-21 06:30:00,45.1,38.7,30.21,ENE,67,6.3,6.3,78,0.00,,---,0.00,10.91,VWS V14.01,2013-04-21 13:30:00,
2013-04-21 06:35:00,45.1,38.5,30.21,NE,56,6.0,7.8,77,0.00,,---,0.00,8.93,VWS V14.01,2013-04-21 13:35:00,
2013-04-21 06:40:00,45.0,38.3,30.21,NE,43,5.1,5.1,77,0.00,,---,0.00,8.09,VWS V14.01,2013-04-21 13:40:00,
2013-04-21 06:45:00,45.1,38.5,30.21,ENE,68,4.9,6.5,77,0.00,,---,0.00,14.12,VWS V14.01,2013-04-21 13:45:00,
2013-04-21 06:50:00,45.1,38.5,30.21,NE,52,4.9,4.9,77,0.00,,---,0.00,21.67,VWS V14.01,2013-04-21 13:50:00,
2013-04-21 06:55:00,45.1,38.5,30.21,ESE,115,4.7,7.6,78,0.00,,---,0.00,16.25,VWS V14.01,2013-04-21 13:55:00,
2013-04-21 07:00:00,45.1,38.5,30.21,ENE,73,4.9,6.3,77,0.00,,---,0.00,19.23,VWS V14.01,2013-04-21 14:00:00,
2013-04-21 07:05:00,45.1,38.4,30.21,ENE,68,5.4,5.4,77,0.00,,---,0.00,10.99,VWS V14.01,2013-04-21 14:05:00,
2013-04-21 07:10:00,45.1,38.5,30.21,ENE,77,4.3,4.3,77,0.00,,---,0.00,15.03,VWS V14.01,2013-04-21 14:10:00,
2013-04-21 07:15:00,45.1,38.5,30.21,ENE,61,4.3,8.1,78,0.00,,---,0.00,17.40,VWS V14.01,2013-04-21 14:15:00,
2013-04-21 07:20:00,45.0,38.2,30.21,ENE,69,8.5,8.5,77,0.00,,---,0.00,24.42,VWS V14.01,2013-04-21 14:20:00,
2013-04-21 07:25:00,45.0,38.3,30.21,ENE,68,4.9,9.0,77,0.00,,---,0.00,17.55,VWS V14.01,2013-04-21 14:25:00,
2013-04-21 07:30:00,45.0,38.3,30.21,NE,56,3.4,3.4,77,0.00,,---,0.00,18.32,VWS V14.01,2013-04-21 14:30:00,
2013-04-21 07:35:00,45.0,38.3,30.21,ENE,72,4.0,4.0,77,0.00,,---,0.00,17.70,VWS V14.01,2013-04-21 14:35:00,
2013-04-21 07:40:00,45.0,38.2,30.21,ENE,71,5.8,5.8,77,0.00,,---,0.00,18.01,VWS V14.01,2013-04-21 14:40:00,
2013-04-21 07:45:00,45.0,38.2,30.21,ENE,70,4.7,9.2,77,0.00,,---,0.00,27.85,VWS V14.01,2013-04-21 14:45:00,
2013-04-21 07:50:00,45.0,38.3,30.21,ESE,106,9.6,9.6,77,0.00,,---,0.00,31.67,VWS V14.01,2013-04-21 14:50:00,
2013-04-21 07:55:00,45.0,38.2,30.21,NE,55,10.3,10.3,77,0.00,,---,0.00,30.60,VWS V14.01,2013-04-21 14:55:00,
2013-04-21 08:00:00,45.0,38.1,30.21,East,80,10.5,10.5,77,0.00,,---,0.00,35.79,VWS V14.01,2013-04-21 15:00:00,
2013-04-21 08:05:00,45.1,38.4,30.21,ENE,77,6.5,7.6,77,0.00,,---,0.00,47.39,VWS V14.01,2013-04-21 15:05:00,
2013-04-21 08:10:00,45.1,38.3,30.21,East,81,7.6,7.6,77,0.00,,---,0.00,49.98,VWS V14.01,2013-04-21 15:10:00,
2013-04-21 08:15:00,45.1,38.1,30.21,ENE,61,5.1,5.1,76,0.00,,---,0.00,40.67,VWS V14.01,2013-04-21 15:15:00,
2013-04-21 08:20:00,45.1,38.0,30.21,ENE,63,9.6,9.6,76,0.00,,---,0.00,46.17,VWS V14.01,2013-04-21 15:20:00,
2013-04-21 08:25:00,45.3,38.2,30.21,NE,53,5.1,5.1,76,0.00,,---,0.00,38.61,VWS V14.01,2013-04-21 15:25:00,
2013-04-21 08:30:00,45.3,38.0,30.21,NE,42,6.5,6.5,76,0.00,,---,0.00,42.81,VWS V14.01,2013-04-21 15:30:00,
2013-04-21 08:35:00,45.3,37.9,30.21,NNE,33,3.6,3.6,75,0.00,,---,0.00,54.33,VWS V14.01,2013-04-21 15:35:00,
2013-04-21 08:40:00,45.3,37.9,30.21,East,98,9.2,9.2,75,0.00,,---,0.00,51.36,VWS V14.01,2013-04-21 15:40:00,
2013-04-21 08:45:00,45.5,38.0,30.21,NE,54,5.1,5.1,75,0.00,,---,0.00,47.62,VWS V14.01,2013-04-21 15:45:00,
2013-04-21 08:50:00,45.5,38.0,30.21,ESE,110,4.0,6.3,75,0.00,,---,0.00,58.76,VWS V14.01,2013-04-21 15:50:00,
2013-04-21 08:55:00,45.5,37.8,30.21,East,79,7.8,7.8,74,0.00,,---,0.00,65.78,VWS V14.01,2013-04-21 15:55:00,
2013-04-21 09:00:00,45.5,37.8,30.21,ENE,75,7.4,10.3,74,0.00,,---,0.00,82.19,VWS V14.01,2013-04-21 16:00:00,
2013-04-21 09:05:00,45.9,38.3,30.21,East,95,8.5,8.5,75,0.00,,---,0.00,92.49,VWS V14.01,2013-04-21 16:05:00,
2013-04-21 09:10:00,45.9,38.3,30.21,ESE,120,5.1,9.0,75,0.00,,---,0.00,77.76,VWS V14.01,2013-04-21 16:10:00,
2013-04-21 09:15:00,45.7,38.5,30.21,ESE,118,6.9,6.9,76,0.00,,---,0.00,70.97,VWS V14.01,2013-04-21 16:15:00,
2013-04-21 09:20:00,45.5,38.7,30.21,East,99,6.3,6.9,77,0.00,,---,0.00,102.03,VWS V14.01,2013-04-21 16:20:00,
2013-04-21 09:25:00,45.7,38.8,30.21,ENE,73,3.6,3.6,77,0.00,,---,0.00,115.08,VWS V14.01,2013-04-21 16:25:00,
2013-04-21 09:30:00,45.7,38.4,30.21,East,90,9.2,9.2,76,0.00,,---,0.00,87.07,VWS V14.01,2013-04-21 16:30:00,
2013-04-21 09:35:00,45.7,38.6,30.21,ESE,108,8.3,8.3,76,0.00,,---,0.00,86.23,VWS V14.01,2013-04-21 16:35:00,
2013-04-21 09:40:00,45.5,38.3,30.20,East,81,5.1,5.6,76,0.00,,---,0.00,94.32,VWS V14.01,2013-04-21 16:40:00,
2013-04-21 09:45:00,45.5,38.5,30.20,ESE,116,5.1,5.1,76,0.00,,---,0.00,110.12,VWS V14.01,2013-04-21 16:45:00,
2013-04-21 09:50:00,45.7,38.9,30.20,ESE,123,7.8,7.8,77,0.00,,---,0.00,107.14,VWS V14.01,2013-04-21 16:50:00,
2013-04-21 09:55:00,45.7,38.9,30.20,ESE,121,6.9,8.1,77,0.00,,---,0.00,101.34,VWS V14.01,2013-04-21 16:55:00,
2013-04-21 10:00:00,45.5,38.7,30.20,SE,127,3.6,5.1,77,0.00,,---,0.00,86.69,VWS V14.01,2013-04-21 17:00:00,
2013-04-21 10:05:00,45.5,39.4,30.21,SE,136,3.8,3.8,79,0.00,,---,0.00,117.75,VWS V14.01,2013-04-21 17:05:00,
2013-04-21 10:10:00,45.3,39.3,30.21,ESE,114,5.8,5.8,79,0.00,,---,0.01,142.63,VWS V14.01,2013-04-21 17:10:00,
2013-04-21 10:15:00,45.1,39.0,30.21,East,88,3.6,5.1,79,0.00,,---,0.01,151.63,VWS V14.01,2013-04-21 17:15:00,
2013-04-21 10:20:00,45.3,39.6,30.21,ESE,108,4.5,7.2,80,0.00,,---,0.01,116.30,VWS V14.01,2013-04-21 17:20:00,
2013-04-21 10:25:00,45.3,39.6,30.21,SSE,154,3.6,3.6,80,0.00,,---,0.01,113.93,VWS V14.01,2013-04-21 17:25:00,
2013-04-21 10:30:00,45.1,39.8,30.21,ESE,115,3.4,3.4,81,0.00,,---,0.01,126.37,VWS V14.01,2013-04-21 17:30:00,
2013-04-21 10:35:00,45.5,40.3,30.21,South,182,1.3,1.8,82,0.00,,---,0.01,113.63,VWS V14.01,2013-04-21 17:35:00,
2013-04-21 10:40:00,45.3,39.9,30.21,ESE,115,5.1,5.1,81,0.00,,---,0.01,136.52,VWS V14.01,2013-04-21 17:40:00,
2013-04-21 10:45:00,45.5,40.5,30.21,SSE,157,4.0,4.0,82,0.00,,---,0.01,141.64,VWS V14.01,2013-04-21 17:45:00,
2013-04-21 10:50:00,45.1,40.0,30.21,SE,143,2.5,4.3,82,0.00,,---,0.01,151.18,VWS V14.01,2013-04-21 17:50:00,
2013-04-21 10:55:00,45.1,39.9,30.21,ESE,104,3.6,4.0,82,0.00,,---,0.01,164.53,VWS V14.01,2013-04-21 17:55:00,
2013-04-21 11:00:00,45.1,40.0,30.22,ESE,114,0.7,3.6,82,0.00,,---,0.01,138.58,VWS V14.01,2013-04-21 18:00:00,
2013-04-21 11:05:00,45.1,40.1,30.22,South,183,2.9,3.1,82,0.00,,---,0.01,119.81,VWS V14.01,2013-04-21 18:05:00,
2013-04-21 11:10:00,44.8,39.7,30.22,SW,215,2.0,2.7,82,0.00,,---,0.01,110.12,VWS V14.01,2013-04-21 18:10:00,
2013-04-21 11:15:00,44.8,39.8,30.22,ESE,103,0.9,0.9,83,0.00,,---,0.01,131.79,VWS V14.01,2013-04-21 18:15:00,
2013-04-21 11:20:00,45.1,40.4,30.22,North,5,0.2,0.7,83,0.00,,---,0.01,120.12,VWS V14.01,2013-04-21 18:20:00,
2013-04-21 11:25:00,45.1,40.3,30.22,ESE,111,2.2,3.1,83,0.00,,---,0.01,106.23,VWS V14.01,2013-04-21 18:25:00,
2013-04-21 11:30:00,45.0,40.1,30.22,ENE,75,2.0,2.0,83,0.00,,---,0.01,118.67,VWS V14.01,2013-04-21 18:30:00,
2013-04-21 11:35:00,45.3,40.5,30.22,NNE,33,1.1,1.1,83,0.00,,---,0.01,118.74,VWS V14.01,2013-04-21 18:35:00,
2013-04-21 11:40:00,45.7,40.7,30.22,NW,305,0.4,0.7,83,0.00,,---,0.01,105.77,VWS V14.01,2013-04-21 18:40:00,
2013-04-21 11:45:00,46.0,40.5,30.22,North,356,1.6,2.2,81,0.00,,---,0.01,105.92,VWS V14.01,2013-04-21 18:45:00,
2013-04-21 11:50:00,46.2,40.8,30.22,NW,315,4.3,4.3,81,0.00,,---,0.01,118.67,VWS V14.01,2013-04-21 18:50:00,
2013-04-21 11:55:00,46.2,41.0,30.22,NNW,343,1.3,1.6,82,0.00,,---,0.01,110.42,VWS V14.01,2013-04-21 18:55:00,
2013-04-21 12:00:00,46.6,41.1,30.22,NNW,330,1.3,1.3,81,0.00,,---,0.01,117.67,VWS V14.01,2013-04-21 19:00:00,
2013-04-21 12:05:00,46.6,40.5,30.22,NNW,341,1.1,3.1,79,0.00,,---,0.01,82.95,VWS V14.01,2013-04-21 19:05:00,
2013-04-21 12:10:00,46.6,40.3,30.22,West,267,5.1,5.1,79,0.00,,---,0.01,66.93,VWS V14.01,2013-04-21 19:10:00,
2013-04-21 12:15:00,46.6,40.4,30.22,WNW,300,4.9,4.9,79,0.00,,---,0.01,52.43,VWS V14.01,2013-04-21 19:15:00,
2013-04-21 12:20:00,46.2,40.2,30.22,West,267,1.8,1.8,79,0.00,,---,0.01,70.28,VWS V14.01,2013-04-21 19:20:00,
2013-04-21 12:25:00,46.4,40.7,30.22,North,356,0.7,1.8,80,0.00,,---,0.01,108.67,VWS V14.01,2013-04-21 19:25:00,
2013-04-21 12:30:00,46.2,39.9,30.22,WNW,295,3.4,4.9,78,0.00,,---,0.01,112.64,VWS V14.01,2013-04-21 19:30:00,
2013-04-21 12:35:00,46.2,39.8,30.22,NW,314,3.4,3.4,78,0.00,,---,0.01,131.11,VWS V14.01,2013-04-21 19:35:00,
2013-04-21 12:40:00,46.6,39.8,30.23,NW,312,4.3,4.3,77,0.00,,---,0.01,141.33,VWS V14.01,2013-04-21 19:40:00,
2013-04-21 12:45:00,46.8,40.2,30.23,NNW,327,1.1,2.0,78,0.00,,---,0.01,124.54,VWS V14.01,2013-04-21 19:45:00,
2013-04-21 12:50:00,46.9,40.1,30.23,WNW,293,1.6,1.6,77,0.00,,---,0.01,128.82,VWS V14.01,2013-04-21 19:50:00,
2013-04-21 12:55:00,47.5,40.6,30.23,NW,314,3.8,3.8,77,0.00,,---,0.01,150.11,VWS V14.01,2013-04-21 19:55:00,
2013-04-21 12:59:00,47.3,39.9,30.23,WNW,299,6.5,6.5,75,0.00,,---,0.01,155.14,VWS V14.01,2013-04-21 19:59:00,
2013-04-21 13:04:00,47.3,40.0,30.23,West,275,4.3,4.3,76,0.00,,---,0.01,161.10,VWS V14.01,2013-04-21 20:04:00,
2013-04-21 13:09:00,47.1,39.7,30.23,WNW,288,5.4,5.4,75,0.00,,---,0.01,162.16,VWS V14.01,2013-04-21 20:09:00,
2013-04-21 13:14:00,47.3,40.5,30.22,WNW,297,3.4,3.4,77,0.00,,---,0.01,184.45,VWS V14.01,2013-04-21 20:14:00,
2013-04-21 13:19:00,47.1,40.0,30.22,WNW,298,6.5,6.5,76,0.00,,---,0.01,197.57,VWS V14.01,2013-04-21 20:19:00,
2013-04-21 13:24:00,47.1,40.4,30.22,WNW,294,3.6,6.3,77,0.00,,---,0.01,175.60,VWS V14.01,2013-04-21 20:24:00,
2013-04-21 13:29:00,47.7,41.5,30.22,NW,321,1.1,1.8,79,0.00,,---,0.01,256.33,VWS V14.01,2013-04-21 20:29:00,
2013-04-21 13:34:00,48.4,41.7,30.22,NW,317,1.8,1.8,77,0.00,,---,0.01,259.62,VWS V14.01,2013-04-21 20:34:00,
2013-04-21 13:39:00,48.6,41.3,30.22,WNW,290,4.7,4.7,76,0.00,,---,0.01,243.82,VWS V14.01,2013-04-21 20:39:00,
2013-04-21 13:44:00,48.2,40.3,30.22,West,266,3.8,5.1,74,0.00,,---,0.01,202.46,VWS V14.01,2013-04-21 20:44:00,
2013-04-21 13:49:00,48.4,40.1,30.23,SSW,194,0.4,2.0,73,0.00,,---,0.01,189.79,VWS V14.01,2013-04-21 20:49:00,
2013-04-21 13:54:00,48.9,40.8,30.23,WNW,297,4.3,4.3,74,0.00,,---,0.01,249.31,VWS V14.01,2013-04-21 20:54:00,
2013-04-21 13:59:00,49.5,41.4,30.23,NW,305,5.6,5.6,74,0.00,,---,0.01,169.34,VWS V14.01,2013-04-21 20:59:00,
2013-04-21 14:04:00,49.1,40.8,30.23,NNW,327,2.7,4.9,73,0.00,,---,0.01,170.41,VWS V14.01,2013-04-21 21:04:00,
2013-04-21 14:09:00,48.9,40.7,30.23,NW,305,5.1,5.8,73,0.00,,---,0.01,254.12,VWS V14.01,2013-04-21 21:09:00,
2013-04-21 14:14:00,49.5,41.8,30.23,NW,318,2.2,2.2,75,0.00,,---,0.01,315.78,VWS V14.01,2013-04-21 21:14:00,
2013-04-21 14:19:00,49.8,41.3,30.23,WNW,300,2.5,2.5,72,0.00,,---,0.01,279.00,VWS V14.01,2013-04-21 21:19:00,
2013-04-21 14:24:00,50.4,40.6,30.23,NW,316,2.0,4.9,69,0.00,,---,0.01,265.64,VWS V14.01,2013-04-21 21:24:00,
2013-04-21 14:29:00,50.2,38.6,30.23,South,182,3.6,5.6,64,0.00,,---,0.01,180.25,VWS V14.01,2013-04-21 21:29:00,
2013-04-21 14:34:00,50.0,38.2,30.24,SW,236,2.9,2.9,64,0.00,,---,0.01,157.43,VWS V14.01,2013-04-21 21:34:00,
2013-04-21 14:39:00,50.2,38.4,30.24,WNW,295,4.7,4.7,64,0.00,,---,0.01,188.49,VWS V14.01,2013-04-21 21:39:00,
2013-04-21 14:44:00,50.0,38.0,30.24,SSW,195,3.1,4.5,63,0.00,,---,0.01,192.77,VWS V14.01,2013-04-21 21:44:00,
2013-04-21 14:49:00,49.5,37.8,30.24,NNW,337,0.7,1.8,64,0.00,,---,0.01,206.88,VWS V14.01,2013-04-21 21:49:00,
2013-04-21 14:54:00,49.8,38.3,30.24,SSE,160,4.3,4.3,64,0.00,,---,0.01,285.26,VWS V14.01,2013-04-21 21:54:00,
2013-04-21 14:59:00,49.8,38.2,30.24,SSW,211,2.5,2.5,64,0.00,,---,0.01,232.52,VWS V14.01,2013-04-21 21:59:00,
2013-04-21 15:04:00,50.2,38.2,30.23,SW,221,2.7,2.7,63,0.00,,---,0.01,580.43,VWS V14.01,2013-04-21 22:04:00,
2013-04-21 15:09:00,50.9,37.7,30.23,South,187,5.8,5.8,60,0.00,,---,0.01,556.40,VWS V14.01,2013-04-21 22:09:00,
2013-04-21 15:14:00,52.2,37.3,30.23,West,272,6.3,6.3,57,0.00,,---,0.01,561.20,VWS V14.01,2013-04-21 22:14:00,
2013-04-21 15:19:00,51.8,35.0,30.23,WSW,254,7.8,7.8,53,0.00,,---,0.01,564.41,VWS V14.01,2013-04-21 22:19:00,
2013-04-21 15:24:00,53.1,36.1,30.23,West,271,3.8,3.8,52,0.00,,---,0.01,448.03,VWS V14.01,2013-04-21 22:24:00,
2013-04-21 15:29:00,53.4,36.3,30.23,SSE,168,2.2,2.2,52,0.00,,---,0.01,554.87,VWS V14.01,2013-04-21 22:29:00,
2013-04-21 15:34:00,53.4,35.2,30.23,NW,314,10.1,10.1,50,0.00,,---,0.01,527.32,VWS V14.01,2013-04-21 22:34:00,
2013-04-21 15:39:00,53.8,35.7,30.23,South,178,3.6,3.6,50,0.00,,---,0.01,537.62,VWS V14.01,2013-04-21 22:39:00,
2013-04-21 15:44:00,53.2,35.0,30.23,WSW,242,5.4,5.4,50,0.00,,---,0.01,545.48,VWS V14.01,2013-04-21 22:44:00,
2013-04-21 15:49:00,53.4,34.9,30.23,WNW,299,4.3,7.4,49,0.00,,---,0.01,537.09,VWS V14.01,2013-04-21 22:49:00,
2013-04-21 15:54:00,53.4,36.1,30.23,North,9,1.6,3.4,52,0.00,,---,0.01,237.26,VWS V14.01,2013-04-21 22:54:00,
2013-04-21 15:59:00,53.4,36.8,30.23,WNW,301,3.4,3.4,53,0.00,,---,0.01,216.12,VWS V14.01,2013-04-21 22:59:00,
2013-04-21 16:04:00,52.0,35.7,30.23,SSW,208,6.7,6.7,54,0.00,,---,0.01,238.32,VWS V14.01,2013-04-21 23:04:00,
2013-04-21 16:09:00,52.0,36.3,30.23,SW,228,11.2,11.2,55,0.00,,---,0.01,291.97,VWS V14.01,2013-04-21 23:09:00,
2013-04-21 16:14:00,52.2,36.7,30.23,SSE,167,6.7,6.7,55,0.00,,---,0.01,292.20,VWS V14.01,2013-04-21 23:14:00,
2013-04-21 16:19:00,52.7,37.3,30.23,SSE,159,5.6,5.6,56,0.00,,---,0.01,205.43,VWS V14.01,2013-04-21 23:19:00,
2013-04-21 16:24:00,52.3,36.5,30.23,South,171,9.6,9.6,55,0.00,,---,0.01,227.87,VWS V14.01,2013-04-21 23:24:00,
2013-04-21 16:29:00,52.5,36.7,30.23,SW,234,5.4,6.9,55,0.00,,---,0.01,266.79,VWS V14.01,2013-04-21 23:29:00,
2013-04-21 16:34:00,53.4,36.9,30.23,SE,137,2.9,2.9,53,0.00,,---,0.01,308.84,VWS V14.01,2013-04-21 23:34:00,
2013-04-21 16:39:00,54.0,36.4,30.23,South,190,6.0,6.0,51,0.00,,---,0.01,200.47,VWS V14.01,2013-04-21 23:39:00,
2013-04-21 16:44:00,52.9,35.2,30.23,South,183,7.2,8.1,51,0.00,,---,0.01,177.81,VWS V14.01,2013-04-21 23:44:00,
2013-04-21 16:49:00,52.5,35.2,30.23,SSE,164,4.3,4.3,52,0.00,,---,0.01,165.67,VWS V14.01,2013-04-21 23:49:00,
2013-04-21 16:54:00,52.3,35.4,30.23,South,172,2.2,2.2,52,0.00,,---,0.01,361.11,VWS V14.01,2013-04-21 23:54:00,
2013-04-21 16:59:00,53.1,35.7,30.23,WNW,296,2.0,2.0,52,0.00,,---,0.01,187.19,VWS V14.01,2013-04-21 23:59:00,
2013-04-21 17:04:00,53.4,35.4,30.23,West,264,6.3,6.3,50,0.00,,---,0.01,153.31,VWS V14.01,2013-04-22 00:04:00,
2013-04-21 17:09:00,52.7,35.9,30.23,WSW,239,3.8,3.8,53,0.00,,---,0.01,149.19,VWS V14.01,2013-04-22 00:09:00,
2013-04-21 17:14:00,52.3,36.9,30.24,SW,228,3.4,3.4,56,0.00,,---,0.01,142.48,VWS V14.01,2013-04-22 00:14:00,
2013-04-21 17:19:00,52.3,38.1,30.24,SW,220,5.1,5.1,58,0.00,,---,0.01,187.58,VWS V14.01,2013-04-22 00:19:00,
2013-04-21 17:24:00,52.9,38.2,30.24,SE,130,5.1,5.1,57,0.00,,---,0.01,319.22,VWS V14.01,2013-04-22 00:24:00,
2013-04-21 17:29:00,52.3,36.3,30.24,SW,229,5.1,11.6,54,0.00,,---,0.01,230.31,VWS V14.01,2013-04-22 00:29:00,
2013-04-21 17:34:00,52.9,36.9,30.24,South,189,6.7,6.7,54,0.00,,---,0.01,125.15,VWS V14.01,2013-04-22 00:34:00,
2013-04-21 17:39:00,52.2,36.7,30.24,SW,219,2.9,3.6,55,0.00,,---,0.01,255.95,VWS V14.01,2013-04-22 00:39:00,
2013-04-21 17:44:00,52.2,36.9,30.24,WSW,248,3.8,3.8,56,0.00,,---,0.01,108.75,VWS V14.01,2013-04-22 00:44:00,
2013-04-21 17:49:00,51.8,36.6,30.24,South,179,6.9,8.1,56,0.00,,---,0.01,83.87,VWS V14.01,2013-04-22 00:49:00,
2013-04-21 17:54:00,51.4,37.2,30.24,WSW,238,3.6,3.6,58,0.00,,---,0.01,66.85,VWS V14.01,2013-04-22 00:54:00,
2013-04-21 17:59:00,51.6,37.9,30.24,North,0,3.4,3.4,59,0.00,,---,0.01,73.57,VWS V14.01,2013-04-22 00:59:00,
2013-04-21 18:04:00,51.3,37.7,30.24,ENE,57,2.9,2.9,60,0.00,,---,0.01,59.98,VWS V14.01,2013-04-22 01:04:00,
2013-04-21 18:09:00,51.1,36.8,30.24,WSW,241,2.0,5.8,58,0.00,,---,0.01,59.52,VWS V14.01,2013-04-22 01:09:00,
2013-04-21 18:14:00,50.9,36.4,30.24,SSW,210,4.9,4.9,57,0.00,,---,0.01,61.74,VWS V14.01,2013-04-22 01:14:00,
2013-04-21 18:19:00,50.9,36.8,30.24,SSE,167,7.8,7.8,58,0.00,,---,0.01,87.30,VWS V14.01,2013-04-22 01:19:00,
2013-04-21 18:24:00,51.1,36.8,30.24,NNE,16,2.2,2.2,58,0.00,,---,0.01,92.72,VWS V14.01,2013-04-22 01:24:00,
2013-04-21 18:29:00,51.3,36.7,30.24,SW,217,4.3,4.3,57,0.00,,---,0.01,126.07,VWS V14.01,2013-04-22 01:29:00,
2013-04-21 18:34:00,51.4,36.7,30.24,WNW,287,9.6,9.6,57,0.00,,---,0.01,186.89,VWS V14.01,2013-04-22 01:34:00,
2013-04-21 18:39:00,51.4,36.7,30.24,South,191,7.2,9.2,57,0.00,,---,0.01,154.53,VWS V14.01,2013-04-22 01:39:00,
2013-04-21 18:44:00,51.6,37.0,30.24,SSE,166,1.8,5.4,57,0.00,,---,0.01,159.34,VWS V14.01,2013-04-22 01:44:00,
2013-04-21 18:49:00,51.3,37.3,30.25,SSW,206,1.8,2.9,59,0.00,,---,0.01,148.28,VWS V14.01,2013-04-22 01:49:00,
2013-04-21 18:54:00,50.9,37.1,30.25,WSW,253,4.9,7.6,59,0.00,,---,0.01,78.53,VWS V14.01,2013-04-22 01:54:00,
2013-04-21 18:59:00,50.5,37.2,30.25,SW,214,2.2,2.2,60,0.00,,---,0.01,80.05,VWS V14.01,2013-04-22 01:59:00,
2013-04-21 19:04:00,50.2,37.6,30.25,WSW,241,1.3,2.2,62,0.00,,---,0.01,48.53,VWS V14.01,2013-04-22 02:04:00,
2013-04-21 19:09:00,49.8,37.7,30.25,SSW,202,5.4,5.4,63,0.00,,---,0.01,47.39,VWS V14.01,2013-04-22 02:09:00,
2013-04-21 19:14:00,49.3,37.8,30.25,West,274,5.1,5.1,64,0.00,,---,0.01,46.63,VWS V14.01,2013-04-22 02:14:00,
2013-04-21 19:19:00,49.1,38.1,30.26,WSW,258,5.8,5.8,66,0.00,,---,0.01,25.18,VWS V14.01,2013-04-22 02:19:00,
2013-04-21 19:24:00,48.9,38.2,30.26,SSW,209,4.9,6.5,66,0.00,,---,0.01,43.96,VWS V14.01,2013-04-22 02:24:00,
2013-04-21 19:29:00,48.9,38.5,30.26,SSW,205,2.5,2.5,67,0.00,,---,0.01,56.62,VWS V14.01,2013-04-22 02:29:00,
2013-04-21 19:34:00,48.7,38.2,30.26,NW,320,1.3,1.3,67,0.00,,---,0.01,14.50,VWS V14.01,2013-04-22 02:34:00,
2013-04-21 19:39:00,48.4,37.8,30.26,SW,229,7.4,7.4,67,0.00,,---,0.01,16.87,VWS V14.01,2013-04-22 02:39:00,
2013-04-21 19:44:00,48.2,37.8,30.26,SW,223,3.8,4.3,67,0.00,,---,0.01,9.39,VWS V14.01,2013-04-22 02:44:00,
2013-04-21 19:49:00,47.8,37.6,30.27,West,280,3.8,3.8,68,0.00,,---,0.01,8.39,VWS V14.01,2013-04-22 02:49:00,
2013-04-21 19:54:00,47.7,37.7,30.27,SSW,203,2.9,4.9,68,0.00,,---,0.01,6.64,VWS V14.01,2013-04-22 02:54:00,
2013-04-21 19:59:00,47.7,37.9,30.27,NW,304,2.9,2.9,69,0.00,,---,0.01,3.43,VWS V14.01,2013-04-22 02:59:00,
2013-04-21 20:04:00,47.5,38.0,30.27,SSW,197,4.0,4.0,70,0.00,,---,0.01,2.44,VWS V14.01,2013-04-22 03:04:00,
2013-04-21 20:09:00,47.5,38.2,30.27,North,358,1.8,1.8,70,0.00,,---,0.01,0.00,VWS V14.01,2013-04-22 03:09:00,
2013-04-21 20:14:00,47.3,38.0,30.27,West,265,1.6,1.6,70,0.00,,---,0.01,0.00,VWS V14.01,2013-04-22 03:14:00,
2013-04-21 20:19:00,47.3,38.1,30.27,SSE,165,0.9,0.9,70,0.00,,---,0.01,0.00,VWS V14.01,2013-04-22 03:19:00,
2013-04-21 20:24:00,47.1,38.1,30.28,WNW,290,4.7,4.7,71,0.00,,---,0.01,0.00,VWS V14.01,2013-04-22 03:24:00,
2013-04-21 20:29:00,47.1,38.6,30.28,WNW,298,2.9,2.9,72,0.00,,---,0.01,1.60,VWS V14.01,2013-04-22 03:29:00,
2013-04-21 20:34:00,46.9,38.6,30.28,WSW,249,3.1,3.1,73,0.00,,---,0.01,1.30,VWS V14.01,2013-04-22 03:34:00,
2013-04-21 20:39:00,46.8,38.6,30.29,SE,124,2.5,2.5,73,0.00,,---,0.01,0.00,VWS V14.01,2013-04-22 03:39:00,
2013-04-21 20:44:00,46.8,38.5,30.29,SE,132,1.1,1.1,73,0.00,,---,0.01,1.76,VWS V14.01,2013-04-22 03:44:00,
2013-04-21 20:49:00,46.6,38.3,30.29,SE,135,1.1,1.1,73,0.00,,---,0.01,0.00,VWS V14.01,2013-04-22 03:49:00,
2013-04-21 20:54:00,46.6,38.3,30.29,WNW,294,4.3,4.3,73,0.00,,---,0.01,0.00,VWS V14.01,2013-04-22 03:54:00,
2013-04-21 20:59:00,46.4,38.0,30.30,WNW,285,3.1,4.9,72,0.00,,---,0.01,0.00,VWS V14.01,2013-04-22 03:59:00,
2013-04-21 21:01:00,46.4,38.0,30.30,WNW,297,2.7,4.3,72,0.00,,---,0.01,0.00,VWS V14.01,2013-04-22 04:01:00,
2013-04-21 21:06:00,46.2,37.4,30.30,SW,231,2.5,2.5,71,0.00,,---,0.01,3.13,VWS V14.01,2013-04-22 04:06:00,
2013-04-21 21:11:00,46.2,37.3,30.30,NW,322,2.7,2.7,71,0.00,,---,0.01,0.00,VWS V14.01,2013-04-22 04:11:00,
2013-04-21 21:16:00,46.2,37.1,30.30,NW,307,2.9,2.9,70,0.00,,---,0.01,0.84,VWS V14.01,2013-04-22 04:16:00,
2013-04-21 21:21:00,46.2,36.9,30.30,WSW,248,5.6,5.6,70,0.00,,---,0.01,0.00,VWS V14.01,2013-04-22 04:21:00,
2013-04-21 21:26:00,46.0,36.5,30.31,South,182,1.6,1.6,69,0.00,,---,0.01,0.00,VWS V14.01,2013-04-22 04:26:00,
2013-04-21 21:31:00,46.0,36.4,30.31,WNW,287,2.2,2.2,69,0.00,,---,0.01,0.69,VWS V14.01,2013-04-22 04:31:00,
2013-04-21 21:36:00,46.0,36.2,30.31,WNW,299,0.4,3.8,68,0.00,,---,0.01,0.00,VWS V14.01,2013-04-22 04:36:00,
2013-04-21 21:41:00,45.9,36.1,30.31,NW,308,2.7,4.3,68,0.00,,---,0.01,0.53,VWS V14.01,2013-04-22 04:41:00,
2013-04-21 21:46:00,45.9,35.8,30.31,West,276,2.7,2.7,68,0.00,,---,0.01,0.00,VWS V14.01,2013-04-22 04:46:00,
2013-04-21 21:51:00,45.7,35.7,30.31,WSW,252,1.8,1.8,68,0.00,,---,0.01,0.00,VWS V14.01,2013-04-22 04:51:00,
2013-04-21 21:56:00,45.9,35.7,30.31,SSW,205,5.1,5.1,67,0.00,,---,0.01,0.23,VWS V14.01,2013-04-22 04:56:00,
2013-04-21 22:01:00,45.9,35.7,30.31,NW,313,2.9,2.9,67,0.00,,---,0.01,0.00,VWS V14.01,2013-04-22 05:01:00,
2013-04-21 22:06:00,45.7,35.5,30.32,NW,304,1.1,1.8,67,0.00,,---,0.01,0.00,VWS V14.01,2013-04-22 05:06:00,
2013-04-21 22:11:00,45.7,35.5,30.32,West,278,2.2,2.2,68,0.00,,---,0.01,2.21,VWS V14.01,2013-04-22 05:11:00,
2013-04-21 22:16:00,45.7,35.5,30.32,East,89,0.7,0.7,67,0.00,,---,0.01,0.00,VWS V14.01,2013-04-22 05:16:00,
2013-04-21 22:21:00,45.5,35.5,30.32,SSE,166,1.6,1.6,68,0.00,,---,0.01,0.00,VWS V14.01,2013-04-22 05:21:00,
2013-04-21 22:26:00,45.3,35.5,30.32,NNE,15,1.1,1.1,68,0.00,,---,0.01,1.07,VWS V14.01,2013-04-22 05:26:00,
2013-04-21 22:31:00,45.3,35.6,30.32,NW,315,2.2,2.2,68,0.00,,---,0.01,0.99,VWS V14.01,2013-04-22 05:31:00,
2013-04-21 22:36:00,45.3,35.7,30.32,NW,323,1.6,1.8,69,0.00,,---,0.01,0.00,VWS V14.01,2013-04-22 05:36:00,
2013-04-21 22:41:00,45.1,35.6,30.33,NW,314,2.2,2.2,69,0.00,,---,0.01,0.00,VWS V14.01,2013-04-22 05:41:00,
2013-04-21 22:46:00,45.1,35.8,30.33,NW,323,3.4,4.7,70,0.00,,---,0.01,0.00,VWS V14.01,2013-04-22 05:46:00,
2013-04-21 22:51:00,45.1,35.8,30.33,NNW,328,2.7,2.7,70,0.00,,---,0.01,0.00,VWS V14.01,2013-04-22 05:51:00,
2013-04-21 22:56:00,45.0,35.7,30.33,NNW,328,2.7,2.7,70,0.00,,---,0.01,0.00,VWS V14.01,2013-04-22 05:56:00,
2013-04-21 23:01:00,45.0,35.8,30.33,WNW,302,1.6,2.0,70,0.00,,---,0.01,0.00,VWS V14.01,2013-04-22 06:01:00,
2013-04-21 23:06:00,44.8,35.9,30.33,NW,322,3.6,3.6,71,0.00,,---,0.01,0.15,VWS V14.01,2013-04-22 06:06:00,
2013-04-21 23:11:00,44.8,35.9,30.33,WNW,303,4.7,4.7,71,0.00,,---,0.01,0.00,VWS V14.01,2013-04-22 06:11:00,
2013-04-21 23:16:00,44.8,35.7,30.33,WNW,296,3.6,4.0,70,0.00,,---,0.01,2.37,VWS V14.01,2013-04-22 06:16:00,
2013-04-21 23:21:00,44.8,35.7,30.33,WNW,286,3.4,4.3,70,0.00,,---,0.01,0.00,VWS V14.01,2013-04-22 06:21:00,
2013-04-21 23:26:00,44.6,35.5,30.33,WNW,286,4.3,4.3,70,0.00,,---,0.01,0.00,VWS V14.01,2013-04-22 06:26:00,
2013-04-21 23:31:00,44.6,35.4,30.33,West,267,3.6,4.5,70,0.00,,---,0.01,0.00,VWS V14.01,2013-04-22 06:31:00,
2013-04-21 23:36:00,44.6,35.4,30.34,West,277,3.4,3.8,70,0.00,,---,0.01,0.31,VWS V14.01,2013-04-22 06:36:00,
2013-04-21 23:41:00,44.4,35.3,30.34,WNW,289,4.0,4.0,70,0.00,,---,0.01,3.36,VWS V14.01,2013-04-22 06:41:00,
2013-04-21 23:46:00,44.4,35.1,30.34,West,273,2.7,4.5,70,0.00,,---,0.01,0.00,VWS V14.01,2013-04-22 06:46:00,
2013-04-21 23:51:00,44.2,34.9,30.34,WNW,300,3.4,3.4,69,0.00,,---,0.01,0.00,VWS V14.01,2013-04-22 06:51:00,
2013-04-21 23:56:00,44.1,34.8,30.34,WNW,298,4.3,4.3,70,0.00,,---,0.01,0.00,VWS V14.01,2013-04-22 06:56:00,